createdAt,value
2018-12-15T00:04:29.742Z,10.40
2018-12-15T00:09:33.309Z,10.93
2018-12-15T00:14:36.826Z,11.77
2018-12-15T00:19:40.382Z,12.07
2018-12-15T00:24:44.769Z,11.83
2018-12-15T00:29:50.355Z,11.80
2018-12-15T00:34:54.667Z,12.03
2018-12-15T00:39:58.701Z,11.40
2018-12-15T00:45:02.221Z,10.80
2018-12-15T00:50:06.238Z,10.37
2018-12-15T00:55:09.713Z,11.47
2018-12-15T01:00:14.095Z,11.67
2018-12-15T01:05:19.295Z,12.03
2018-12-15T01:10:22.987Z,10.83
2018-12-15T01:15:31.953Z,12.63
2018-12-15T01:20:36.316Z,11.83
2018-12-15T01:25:39.791Z,11.47
2018-12-15T01:30:43.265Z,12.77
2018-12-15T01:35:46.783Z,12.97
2018-12-15T01:40:50.393Z,13.13
2018-12-15T01:45:53.862Z,12.00
2018-12-15T01:50:57.432Z,10.82
2018-12-15T01:56:00.947Z,11.48
2018-12-15T02:01:04.428Z,10.37
2018-12-15T02:06:08.007Z,11.70
2018-12-15T02:11:12.259Z,12.80
2018-12-15T02:16:16.423Z,11.97
2018-12-15T02:21:20.612Z,11.37
2018-12-15T02:26:24.099Z,11.05
2018-12-15T02:31:27.596Z,11.97
2018-12-15T02:36:31.085Z,13.10
2018-12-15T02:41:35.040Z,13.10
2018-12-15T02:46:38.528Z,12.85
2018-12-15T02:51:42.172Z,12.27
2018-12-15T02:56:46.565Z,13.00
2018-12-15T03:01:50.113Z,12.23
2018-12-15T03:06:54.476Z,11.07
2018-12-15T03:11:58.414Z,11.75
2018-12-15T03:17:07.378Z,12.40
2018-12-15T03:22:11.022Z,13.78
2018-12-15T03:27:14.866Z,10.67
2018-12-15T03:32:19.344Z,12.20
2018-12-15T03:37:23.389Z,11.97
2018-12-15T03:42:26.838Z,11.73
2018-12-15T03:47:30.296Z,11.08
2018-12-15T03:52:34.118Z,11.50
2018-12-15T03:57:37.668Z,12.67
2018-12-15T04:02:41.203Z,12.00
2018-12-15T04:07:44.710Z,12.80
2018-12-15T04:18:03.823Z,13.07
2018-12-15T04:23:07.570Z,12.73
2018-12-15T04:28:11.269Z,12.37
2018-12-15T04:33:14.768Z,12.87
2018-12-15T04:38:18.295Z,12.03
2018-12-15T04:43:21.770Z,12.37
2018-12-15T04:48:25.505Z,11.73
2018-12-15T04:53:29.768Z,12.70
2018-12-15T04:58:33.938Z,12.77
2018-12-15T05:03:38.244Z,11.80
2018-12-15T05:08:41.752Z,13.60
2018-12-15T05:13:45.197Z,12.43
2018-12-15T05:18:48.652Z,11.03
2018-12-15T05:23:52.140Z,12.00
2018-12-15T05:28:55.627Z,12.27
2018-12-15T05:33:59.207Z,12.03
2018-12-15T05:39:02.909Z,11.73
2018-12-15T05:44:06.410Z,10.32
2018-12-15T05:49:10.458Z,11.00
2018-12-15T05:54:13.957Z,11.93
2018-12-15T05:59:17.466Z,13.60
2018-12-15T06:04:21.159Z,13.83
2018-12-15T06:09:24.631Z,11.93
2018-12-15T06:14:28.132Z,11.00
2018-12-15T06:19:31.659Z,11.93
2018-12-15T06:24:35.553Z,12.47
2018-12-15T06:29:39.071Z,12.03
2018-12-15T06:34:42.538Z,12.27
2018-12-15T06:39:46.750Z,12.90
2018-12-15T06:44:50.569Z,11.53
2018-12-15T06:49:54.378Z,11.73
2018-12-15T06:54:57.972Z,11.70
2018-12-15T07:00:02.059Z,10.65
2018-12-15T07:05:05.673Z,12.07
2018-12-15T07:10:09.483Z,12.57
2018-12-15T07:15:13.082Z,11.77
2018-12-15T07:20:16.820Z,12.53
2018-12-15T07:25:20.536Z,11.83
2018-12-15T07:30:24.183Z,13.18
2018-12-15T07:35:27.754Z,12.27
2018-12-15T07:40:31.785Z,13.10
2018-12-15T07:45:35.546Z,14.87
2018-12-15T07:50:40.994Z,15.13
2018-12-15T07:55:44.964Z,12.77
2018-12-15T08:00:48.567Z,14.53
2018-12-15T08:05:52.049Z,16.03
2018-12-15T08:11:07.090Z,19.13
2018-12-15T08:16:10.680Z,21.57
2018-12-15T08:21:14.218Z,16.40
2018-12-15T08:26:17.809Z,12.90
2018-12-15T08:31:21.742Z,14.10
2018-12-15T08:36:25.465Z,13.33
2018-12-15T08:41:29.108Z,14.47
2018-12-15T08:46:32.969Z,12.93
2018-12-15T08:51:37.317Z,14.10
2018-12-15T08:56:42.012Z,13.67
2018-12-15T09:01:46.281Z,12.93
2018-12-15T09:06:50.719Z,15.57
2018-12-15T09:11:54.238Z,15.17
2018-12-15T09:16:57.756Z,15.77
2018-12-15T09:22:01.235Z,14.83
2018-12-15T09:27:04.866Z,14.43
2018-12-15T09:32:08.526Z,15.33
2018-12-15T09:37:12.086Z,17.83
2018-12-15T09:42:17.163Z,15.08
2018-12-15T09:47:21.925Z,17.63
2018-12-15T09:52:25.872Z,14.23
2018-12-15T09:57:29.336Z,15.72
2018-12-15T10:02:33.006Z,14.97
2018-12-15T10:07:36.461Z,18.07
2018-12-15T10:12:39.985Z,16.43
2018-12-15T10:17:43.768Z,13.57
2018-12-15T10:22:47.946Z,13.60
2018-12-15T10:27:51.988Z,14.30
2018-12-15T10:32:55.901Z,13.07
2018-12-15T10:38:00.074Z,13.88
2018-12-15T10:43:04.727Z,11.47
2018-12-15T10:48:08.491Z,12.23
2018-12-15T10:53:12.528Z,13.07
2018-12-15T10:58:16.177Z,12.40
2018-12-15T11:03:19.975Z,12.63
2018-12-15T11:08:24.919Z,12.28
2018-12-15T11:13:29.554Z,12.53
2018-12-15T11:18:33.088Z,13.00
2018-12-15T11:23:36.682Z,12.03
2018-12-15T11:28:40.525Z,12.65
2018-12-15T11:33:44.102Z,11.23
2018-12-15T11:38:47.585Z,13.00
2018-12-15T11:43:51.268Z,11.20
2018-12-15T11:48:55.113Z,10.07
2018-12-15T11:53:59.094Z,12.40
2018-12-15T11:59:03.805Z,9.63
2018-12-15T12:04:08.200Z,11.53
2018-12-15T12:09:12.362Z,10.13
2018-12-15T12:14:15.886Z,10.50
2018-12-15T12:19:19.390Z,9.83
2018-12-15T12:24:24.239Z,9.60
2018-12-15T12:29:27.833Z,11.17
2018-12-15T12:34:31.321Z,8.53
2018-12-15T12:39:35.581Z,9.83
2018-12-15T12:44:40.392Z,11.33
2018-12-15T12:49:44.048Z,9.33
2018-12-15T12:54:48.172Z,10.10
2018-12-15T12:59:52.828Z,10.37
2018-12-15T13:04:56.615Z,9.97
2018-12-15T13:10:00.220Z,10.90
2018-12-15T13:15:05.490Z,11.00
2018-12-15T13:20:09.859Z,11.43
2018-12-15T13:25:13.887Z,9.83
2018-12-15T13:30:18.197Z,10.07
2018-12-15T13:35:22.403Z,9.87
2018-12-15T13:40:26.593Z,12.97
2018-12-15T13:45:31.573Z,12.77
2018-12-15T13:50:36.238Z,12.87
2018-12-15T13:55:40.424Z,10.70
2018-12-15T14:00:44.311Z,12.20
2018-12-15T14:05:49.751Z,11.90
2018-12-15T14:10:55.584Z,10.32
2018-12-15T14:15:59.326Z,11.77
2018-12-15T14:21:02.787Z,11.10
2018-12-15T14:26:06.444Z,10.75
2018-12-15T14:31:10.073Z,12.13
2018-12-15T14:36:13.825Z,12.53
2018-12-15T14:41:17.544Z,11.17
2018-12-15T14:46:21.029Z,10.37
2018-12-15T14:51:25.786Z,11.70
2018-12-15T14:56:30.478Z,11.67
2018-12-15T15:01:35.103Z,13.83
2018-12-15T15:06:38.882Z,11.87
2018-12-15T15:11:42.503Z,12.13
2018-12-15T15:16:46.023Z,12.10
2018-12-15T15:21:49.899Z,12.03
2018-12-15T15:26:53.345Z,11.40
2018-12-15T15:31:56.906Z,11.17
2018-12-15T15:37:00.419Z,11.43
2018-12-15T15:42:04.047Z,10.30
2018-12-15T15:47:07.592Z,12.65
2018-12-15T15:52:11.192Z,12.40
2018-12-15T15:57:14.963Z,10.90
2018-12-15T16:02:18.480Z,10.30
2018-12-15T16:07:22.565Z,11.70
2018-12-15T16:12:26.535Z,12.63
2018-12-15T16:17:30.960Z,9.85
2018-12-15T16:22:35.061Z,10.82
2018-12-15T16:27:38.573Z,12.13
2018-12-15T16:32:42.462Z,11.47
2018-12-15T16:37:46.134Z,10.80
2018-12-15T16:42:49.701Z,10.33
2018-12-15T16:47:53.168Z,10.80
2018-12-15T16:52:57.666Z,13.53
2018-12-15T16:58:01.181Z,13.62
2018-12-15T17:08:17.743Z,12.13
2018-12-15T17:13:21.210Z,11.40
2018-12-15T17:18:24.850Z,11.60
2018-12-15T17:23:28.324Z,11.00
2018-12-15T17:28:31.823Z,11.90
2018-12-15T17:33:35.315Z,11.93
2018-12-15T17:38:38.799Z,11.27
2018-12-15T17:43:42.285Z,11.10
2018-12-15T17:48:45.846Z,12.43
2018-12-15T17:53:49.341Z,11.43
2018-12-15T17:58:52.844Z,12.33
2018-12-15T18:03:56.878Z,11.80
2018-12-15T18:09:00.422Z,13.33
2018-12-15T18:14:04.072Z,13.23
2018-12-15T18:19:07.785Z,12.23
2018-12-15T18:24:11.306Z,13.00
2018-12-15T18:29:15.951Z,11.17
2018-12-15T18:34:20.925Z,12.40
2018-12-15T18:39:24.523Z,15.73
2018-12-15T18:44:28.348Z,16.33
2018-12-15T18:49:32.146Z,14.70
2018-12-15T18:54:35.667Z,16.30
2018-12-15T18:59:39.542Z,14.27
2018-12-15T19:04:43.211Z,12.80
2018-12-15T19:09:47.644Z,11.90
2018-12-15T19:14:51.678Z,11.97
2018-12-15T19:19:55.916Z,11.57
2018-12-15T19:24:59.923Z,13.27
2018-12-15T19:30:05.221Z,14.13
2018-12-15T19:35:09.011Z,11.60
2018-12-15T19:40:12.878Z,12.17
2018-12-15T19:45:17.677Z,10.80
2018-12-15T19:50:22.139Z,11.10
2018-12-15T19:55:26.426Z,10.00
2018-12-15T20:00:30.909Z,11.10
2018-12-15T20:05:36.253Z,12.47
2018-12-15T20:10:39.981Z,11.87
2018-12-15T20:15:43.448Z,12.17
2018-12-15T20:20:47.009Z,12.27
2018-12-15T20:25:50.918Z,13.03
2018-12-15T20:30:54.922Z,12.90
2018-12-15T20:35:59.239Z,11.80
2018-12-15T20:41:03.564Z,11.83
2018-12-15T20:46:07.496Z,12.67
2018-12-15T20:51:11.148Z,11.03
2018-12-15T20:56:14.826Z,12.57
2018-12-15T21:01:18.957Z,14.10
2018-12-15T21:06:23.063Z,17.60
2018-12-15T21:11:26.831Z,14.00
2018-12-15T21:16:30.425Z,11.87
2018-12-15T21:21:34.120Z,12.07
2018-12-15T21:26:39.114Z,10.93
2018-12-15T21:31:44.923Z,10.87
2018-12-15T21:36:48.453Z,11.00
2018-12-15T21:41:51.992Z,11.07
2018-12-15T21:46:55.591Z,12.03
2018-12-15T21:52:00.472Z,11.33
2018-12-15T21:57:04.090Z,13.15
2018-12-15T22:02:07.740Z,11.87
2018-12-15T22:07:11.884Z,11.03
2018-12-15T22:12:16.933Z,11.47
2018-12-15T22:17:20.939Z,12.80
2018-12-15T22:22:25.593Z,11.60
2018-12-15T22:27:30.128Z,11.90
2018-12-15T22:32:33.612Z,10.70
2018-12-15T22:37:37.116Z,11.18
2018-12-15T22:42:40.727Z,10.13
2018-12-15T22:47:44.352Z,12.70
2018-12-15T22:52:48.193Z,11.77
2018-12-15T22:57:52.764Z,13.80
2018-12-15T23:02:56.636Z,10.87
2018-12-15T23:08:00.899Z,14.23
2018-12-15T23:13:04.516Z,13.97
2018-12-15T23:18:07.982Z,10.57
2018-12-15T23:23:11.475Z,10.23
2018-12-15T23:28:15.473Z,9.68
2018-12-15T23:33:18.966Z,9.23
2018-12-15T23:38:22.489Z,9.37
2018-12-15T23:43:26.347Z,10.73
2018-12-15T23:56:27.945Z,11.20
